Time;durP1;ratioP1;P1;durP2;ratioP2;P2;SDS_P1;SDS_P2;PMS_P1;PMS_P2;Temp;Humidity;BMP_temperature;BMP_pressure;BME280_temperature;BME280_humidity;BME280_pressure;Samples;Min_cycle;Max_cycle;Signal;HPM_P1;HPM_P2
2021/06/11 00:01:55;;;;;;;10.77;9.00;;;;;;;;;;3578749;40;20041;-62
2021/06/11 00:04:20;;;;;;;11.93;9.70;;;;;;;;;;3586565;40;20043;-63
2021/06/11 00:06:46;;;;;;;12.50;11.02;;;;;;;;;;3585015;40;20257;-62
2021/06/11 00:09:14;;;;;;;13.30;12.02;;;;;;;;;;3586182;40;20037;-63
2021/06/11 00:11:41;;;;;;;14.00;11.20;;;;;;;;;;3585816;40;20045;-63
2021/06/11 00:14:06;;;;;;;12.82;10.77;;;;;;;;;;3586778;40;20032;-63
2021/06/11 00:16:31;;;;;;;12.93;10.13;;;;;;;;;;3585004;40;20041;-63
2021/06/11 00:18:57;;;;;;;11.40;10.38;;;;;;;;;;3585062;40;20051;-63
2021/06/11 00:21:22;;;;;;;12.00;10.38;;;;;;;;;;3586436;40;20134;-64
2021/06/11 00:23:47;;;;;;;12.35;11.15;;;;;;;;;;3586716;40;20036;-63
2021/06/11 00:26:13;;;;;;;11.98;10.77;;;;;;;;;;3584489;40;20032;-64
2021/06/11 00:28:38;;;;;;;12.70;11.43;;;;;;;;;;3585408;40;20043;-63
2021/06/11 00:31:03;;;;;;;14.38;11.80;;;;;;;;;;3586997;40;20033;-63
2021/06/11 00:33:29;;;;;;;12.00;10.80;;;;;;;;;;3585402;40;20029;-64
2021/06/11 00:35:54;;;;;;;13.20;10.85;;;;;;;;;;3586223;40;20511;-64
2021/06/11 00:38:20;;;;;;;12.20;11.10;;;;;;;;;;3586158;40;20531;-64
2021/06/11 00:40:45;;;;;;;13.77;11.60;;;;;;;;;;3586339;40;20047;-64
2021/06/11 00:43:14;;;;;;;12.93;11.63;;;;;;;;;;3587435;40;20407;-64
2021/06/11 00:45:44;;;;;;;13.77;11.13;;;;;;;;;;3586190;40;20587;-64
2021/06/11 00:48:10;;;;;;;14.75;11.55;;;;;;;;;;3586573;40;20045;-64
2021/06/11 00:50:36;;;;;;;13.85;12.48;;;;;;;;;;3586119;40;20489;-64
2021/06/11 00:53:03;;;;;;;13.68;12.32;;;;;;;;;;3585900;40;20033;-64
2021/06/11 00:55:29;;;;;;;13.13;11.82;;;;;;;;;;3586087;40;20047;-64
2021/06/11 00:57:56;;;;;;;12.85;11.63;;;;;;;;;;3585272;40;20054;-64
2021/06/11 01:00:21;;;;;;;15.98;12.15;;;;;;;;;;3586400;40;20189;-64
2021/06/11 01:02:46;;;;;;;12.93;11.60;;;;;;;;;;3586532;40;20037;-64
2021/06/11 01:05:13;;;;;;;14.05;12.52;;;;;;;;;;3585220;40;20033;-64
2021/06/11 01:07:41;;;;;;;13.25;11.95;;;;;;;;;;3584229;40;20280;-64
2021/06/11 01:10:08;;;;;;;13.55;12.15;;;;;;;;;;3578771;40;20070;-64
2021/06/11 01:12:34;;;;;;;15.38;13.48;;;;;;;;;;3585530;40;20360;-64
2021/06/11 01:15:02;;;;;;;16.60;12.23;;;;;;;;;;3585089;40;20250;-64
2021/06/11 01:17:30;;;;;;;15.07;13.63;;;;;;;;;;3576455;40;20037;-65
2021/06/11 01:19:56;;;;;;;14.85;13.55;;;;;;;;;;3586865;40;20036;-64
2021/06/11 01:22:36;;;;;;;14.27;12.88;;;;;;;;;;3584992;40;20047;-64
2021/06/11 01:25:17;;;;;;;16.55;13.73;;;;;;;;;;3585413;40;20040;-63
2021/06/11 01:27:45;;;;;;;13.82;12.57;;;;;;;;;;3584852;40;20040;-63
2021/06/11 01:30:31;;;;;;;22.02;13.07;;;;;;;;;;3585853;40;20349;-63
2021/06/11 01:32:59;;;;;;;14.95;13.57;;;;;;;;;;3585923;40;20036;-64
2021/06/11 01:35:33;;;;;;;17.55;13.88;;;;;;;;;;3585503;40;20036;-64
2021/06/11 01:38:02;;;;;;;15.93;14.40;;;;;;;;;;3585847;40;20064;-63
2021/06/11 01:40:30;;;;;;;14.40;13.15;;;;;;;;;;3585430;40;20257;-64
2021/06/11 01:42:59;;;;;;;14.55;13.13;;;;;;;;;;3586519;40;20052;-64
2021/06/11 01:45:24;;;;;;;14.55;13.05;;;;;;;;;;3584546;40;20575;-63
2021/06/11 01:47:52;;;;;;;15.93;13.32;;;;;;;;;;3584289;40;20032;-63
2021/06/11 01:50:30;;;;;;;13.95;12.52;;;;;;;;;;3585868;40;20114;-63
2021/06/11 01:52:56;;;;;;;14.57;12.95;;;;;;;;;;3584724;40;20047;-64
2021/06/11 01:55:23;;;;;;;13.73;12.48;;;;;;;;;;3584251;40;20170;-64
2021/06/11 01:57:49;;;;;;;13.90;12.50;;;;;;;;;;3583704;40;20052;-64
2021/06/11 02:00:17;;;;;;;14.30;12.93;;;;;;;;;;3586072;40;20083;-64
2021/06/11 02:02:43;;;;;;;14.25;12.23;;;;;;;;;;3585085;40;20367;-64
2021/06/11 02:05:10;;;;;;;13.70;12.30;;;;;;;;;;3583931;40;20076;-64
2021/06/11 02:07:36;;;;;;;14.13;12.82;;;;;;;;;;3585869;40;20286;-64
2021/06/11 02:10:04;;;;;;;13.02;11.82;;;;;;;;;;3587461;40;20245;-64
2021/06/11 02:12:29;;;;;;;13.05;11.75;;;;;;;;;;3587071;40;20036;-64
2021/06/11 02:14:55;;;;;;;14.32;13.02;;;;;;;;;;3587361;40;20040;-64
2021/06/11 02:17:22;;;;;;;12.25;11.05;;;;;;;;;;3586719;40;20299;-64
2021/06/11 02:19:48;;;;;;;11.93;10.70;;;;;;;;;;3586326;40;20400;-64
2021/06/11 02:22:14;;;;;;;13.60;12.20;;;;;;;;;;3588047;40;20039;-64
2021/06/11 02:24:40;;;;;;;11.82;10.63;;;;;;;;;;3587527;40;20041;-64
2021/06/11 02:27:07;;;;;;;11.65;10.50;;;;;;;;;;3586017;40;20269;-65
2021/06/11 02:29:35;;;;;;;10.35;9.35;;;;;;;;;;3586575;40;20129;-64
2021/06/11 02:32:02;;;;;;;9.77;8.77;;;;;;;;;;3587575;40;20041;-65
2021/06/11 02:34:27;;;;;;;10.90;9.80;;;;;;;;;;3586691;40;20395;-64
2021/06/11 02:36:54;;;;;;;11.38;9.80;;;;;;;;;;3584845;40;20040;-64
2021/06/11 02:39:19;;;;;;;9.93;9.02;;;;;;;;;;3586877;40;20037;-64
2021/06/11 02:41:49;;;;;;;11.35;9.77;;;;;;;;;;3578376;40;20303;-64
2021/06/11 02:44:15;;;;;;;10.55;8.65;;;;;;;;;;3585615;40;20583;-64
2021/06/11 02:46:47;;;;;;;9.35;8.45;;;;;;;;;;3584616;40;20048;-63
2021/06/11 02:49:32;;;;;;;11.13;10.00;;;;;;;;;;3587245;40;20080;-63
2021/06/11 02:52:01;;;;;;;11.35;8.15;;;;;;;;;;3587714;40;20040;-64
2021/06/11 02:54:32;;;;;;;13.38;9.45;;;;;;;;;;3586478;40;20423;-63
2021/06/11 02:57:02;;;;;;;9.57;8.35;;;;;;;;;;3586665;40;20052;-62
2021/06/11 02:59:35;;;;;;;10.60;9.43;;;;;;;;;;3576081;40;20060;-63
2021/06/11 03:02:04;;;;;;;13.18;9.52;;;;;;;;;;3585655;40;20061;-63
2021/06/11 03:04:31;;;;;;;9.48;8.40;;;;;;;;;;3586666;40;20379;-63
2021/06/11 03:06:57;;;;;;;10.13;9.00;;;;;;;;;;3587134;40;20163;-63
2021/06/11 03:09:26;;;;;;;9.88;8.98;;;;;;;;;;3586904;40;20033;-63
2021/06/11 03:11:54;;;;;;;9.20;8.30;;;;;;;;;;3586265;40;20044;-62
2021/06/11 03:14:21;;;;;;;12.43;9.15;;;;;;;;;;3579511;40;20039;-62
2021/06/11 03:16:50;;;;;;;9.30;8.30;;;;;;;;;;3584863;40;20514;-63
2021/06/11 03:19:19;;;;;;;13.07;9.02;;;;;;;;;;3585761;40;20398;-64
2021/06/11 03:21:50;;;;;;;10.40;9.35;;;;;;;;;;3587645;40;20031;-63
2021/06/11 03:24:16;;;;;;;10.73;9.43;;;;;;;;;;3585355;40;20029;-63
2021/06/11 03:26:51;;;;;;;9.63;8.57;;;;;;;;;;3584340;40;20042;-64
2021/06/11 03:29:20;;;;;;;10.32;8.82;;;;;;;;;;3586014;40;20036;-62
2021/06/11 03:31:50;;;;;;;9.02;8.15;;;;;;;;;;3586901;40;20036;-64
2021/06/11 03:34:21;;;;;;;11.57;8.45;;;;;;;;;;3585201;40;20432;-63
2021/06/11 03:36:49;;;;;;;9.93;8.63;;;;;;;;;;3584676;40;20274;-62
2021/06/11 03:39:29;;;;;;;9.35;8.45;;;;;;;;;;3587389;40;20420;-63
2021/06/11 03:41:55;;;;;;;9.82;8.80;;;;;;;;;;3586667;40;20052;-63
2021/06/11 03:44:21;;;;;;;9.27;8.32;;;;;;;;;;3586526;40;20045;-63
2021/06/11 03:46:47;;;;;;;10.32;8.98;;;;;;;;;;3585602;40;20044;-63
2021/06/11 03:49:14;;;;;;;11.80;8.75;;;;;;;;;;3586684;40;20129;-63
2021/06/11 03:51:42;;;;;;;9.98;8.02;;;;;;;;;;3586697;40;20121;-64
2021/06/11 03:54:11;;;;;;;11.07;8.55;;;;;;;;;;3587826;40;20122;-64
2021/06/11 03:56:38;;;;;;;11.77;9.18;;;;;;;;;;3585539;40;20055;-64
2021/06/11 03:59:09;;;;;;;8.90;8.00;;;;;;;;;;3586406;40;20097;-64
2021/06/11 04:01:40;;;;;;;10.48;8.63;;;;;;;;;;3586276;40;20061;-64
2021/06/11 04:04:06;;;;;;;9.50;8.45;;;;;;;;;;3587346;40;20489;-64
2021/06/11 04:06:31;;;;;;;9.30;8.35;;;;;;;;;;3585542;40;20033;-63
2021/06/11 04:09:01;;;;;;;9.32;8.30;;;;;;;;;;3586226;40;20032;-63
2021/06/11 04:11:29;;;;;;;11.07;8.80;;;;;;;;;;3587095;40;20271;-63
2021/06/11 04:13:58;;;;;;;10.57;9.57;;;;;;;;;;3585991;40;20149;-62
2021/06/11 04:16:30;;;;;;;12.68;9.32;;;;;;;;;;3584442;40;20033;-63
2021/06/11 04:18:57;;;;;;;12.02;10.70;;;;;;;;;;3586903;40;20039;-62
2021/06/11 04:21:23;;;;;;;15.48;10.38;;;;;;;;;;3586865;40;20100;-63
2021/06/11 04:23:51;;;;;;;11.45;10.20;;;;;;;;;;3586221;40;20025;-62
2021/06/11 04:26:21;;;;;;;14.18;11.65;;;;;;;;;;3584570;40;20384;-63
2021/06/11 04:28:48;;;;;;;14.85;12.02;;;;;;;;;;3586622;40;20045;-63
2021/06/11 04:31:13;;;;;;;17.33;13.25;;;;;;;;;;3586727;40;20048;-63
2021/06/11 04:33:39;;;;;;;19.77;12.73;;;;;;;;;;3587019;40;20295;-63
2021/06/11 04:36:05;;;;;;;13.82;12.30;;;;;;;;;;3586699;40;20031;-63
2021/06/11 04:38:44;;;;;;;17.63;12.75;;;;;;;;;;3586552;40;20125;-63
2021/06/11 04:41:10;;;;;;;12.25;11.10;;;;;;;;;;3586523;40;20043;-63
2021/06/11 04:43:35;;;;;;;13.45;12.07;;;;;;;;;;3585949;40;20033;-63
2021/06/11 04:46:01;;;;;;;14.77;12.65;;;;;;;;;;3585538;40;20571;-63
2021/06/11 04:48:26;;;;;;;13.30;12.00;;;;;;;;;;3585056;40;20035;-63
2021/06/11 04:50:52;;;;;;;15.40;11.63;;;;;;;;;;3585745;40;20691;-63
2021/06/11 04:53:17;;;;;;;19.85;12.23;;;;;;;;;;3586634;40;20047;-63
2021/06/11 04:55:42;;;;;;;13.77;12.55;;;;;;;;;;3584685;40;20100;-63
2021/06/11 04:58:08;;;;;;;14.65;12.48;;;;;;;;;;3585368;40;20092;-63
2021/06/11 05:00:33;;;;;;;14.52;13.02;;;;;;;;;;3585432;40;20090;-63
2021/06/11 05:02:59;;;;;;;15.25;13.13;;;;;;;;;;3587152;40;20036;-63
2021/06/11 05:05:24;;;;;;;18.05;14.75;;;;;;;;;;3585099;40;20356;-63
2021/06/11 05:07:49;;;;;;;14.27;12.82;;;;;;;;;;3585850;39;20039;-63
2021/06/11 05:10:15;;;;;;;16.63;14.82;;;;;;;;;;3586622;40;20032;-62
2021/06/11 05:12:41;;;;;;;16.92;14.15;;;;;;;;;;3584253;40;20044;-63
2021/06/11 05:15:07;;;;;;;14.82;13.32;;;;;;;;;;3585050;40;20407;-63
2021/06/11 05:17:32;;;;;;;15.73;14.13;;;;;;;;;;3586301;40;20039;-63
2021/06/11 05:19:58;;;;;;;17.45;14.20;;;;;;;;;;3587500;40;20045;-64
2021/06/11 05:22:23;;;;;;;15.90;14.15;;;;;;;;;;3586930;40;20045;-62
2021/06/11 05:24:49;;;;;;;16.23;14.07;;;;;;;;;;3587575;40;20118;-62
2021/06/11 05:27:15;;;;;;;15.07;13.57;;;;;;;;;;3588128;40;20060;-62
2021/06/11 05:29:41;;;;;;;15.68;13.25;;;;;;;;;;3588564;40;20046;-63
2021/06/11 05:32:06;;;;;;;16.92;14.02;;;;;;;;;;3584717;40;20037;-63
2021/06/11 05:34:32;;;;;;;18.88;15.02;;;;;;;;;;3577263;40;20060;-63
2021/06/11 05:36:57;;;;;;;18.63;13.73;;;;;;;;;;3586611;39;20158;-63
2021/06/11 05:39:22;;;;;;;16.65;12.93;;;;;;;;;;3586887;40;20047;-63
2021/06/11 05:41:48;;;;;;;21.77;13.73;;;;;;;;;;3585759;40;20075;-63
2021/06/11 05:44:13;;;;;;;14.57;13.05;;;;;;;;;;3585845;40;20043;-63
2021/06/11 05:46:39;;;;;;;15.60;14.00;;;;;;;;;;3584029;40;20417;-63
2021/06/11 05:49:04;;;;;;;20.17;14.32;;;;;;;;;;3577092;40;20037;-63
2021/06/11 05:51:30;;;;;;;24.25;14.60;;;;;;;;;;3587610;40;20476;-63
2021/06/11 05:53:56;;;;;;;23.27;13.95;;;;;;;;;;3583893;40;20040;-63
2021/06/11 05:56:21;;;;;;;19.65;12.63;;;;;;;;;;3582481;40;20049;-62
2021/06/11 05:58:47;;;;;;;19.38;13.98;;;;;;;;;;3584827;40;20031;-62
2021/06/11 06:01:12;;;;;;;19.15;13.73;;;;;;;;;;3584066;40;20033;-63
2021/06/11 06:03:38;;;;;;;15.13;13.52;;;;;;;;;;3582322;40;20044;-63
2021/06/11 06:06:03;;;;;;;13.23;11.90;;;;;;;;;;3585430;40;20041;-63
2021/06/11 06:08:29;;;;;;;14.00;12.52;;;;;;;;;;3583919;40;20043;-62
2021/06/11 06:10:54;;;;;;;13.57;12.38;;;;;;;;;;3586411;40;20033;-63
2021/06/11 06:13:20;;;;;;;13.05;11.75;;;;;;;;;;3584610;40;20040;-63
2021/06/11 06:15:46;;;;;;;13.40;12.00;;;;;;;;;;3586903;40;20036;-63
2021/06/11 06:18:12;;;;;;;13.30;11.93;;;;;;;;;;3586695;40;20044;-64
2021/06/11 06:20:38;;;;;;;13.52;12.10;;;;;;;;;;3587049;40;21266;-64
2021/06/11 06:23:04;;;;;;;12.25;11.05;;;;;;;;;;3584605;40;20121;-64
2021/06/11 06:25:29;;;;;;;13.10;11.35;;;;;;;;;;3582382;40;20032;-63
2021/06/11 06:27:55;;;;;;;12.95;11.68;;;;;;;;;;3587590;39;20047;-63
2021/06/11 06:30:23;;;;;;;13.13;11.85;;;;;;;;;;3584826;40;20335;-64
2021/06/11 06:32:48;;;;;;;12.60;11.15;;;;;;;;;;3585033;40;20037;-63
2021/06/11 06:35:14;;;;;;;13.52;12.15;;;;;;;;;;3584863;40;20111;-63
2021/06/11 06:37:40;;;;;;;12.52;11.27;;;;;;;;;;3575644;40;20087;-63
2021/06/11 06:40:07;;;;;;;12.38;11.13;;;;;;;;;;3585947;40;20575;-63
2021/06/11 06:42:33;;;;;;;15.13;11.82;;;;;;;;;;3584879;40;20374;-63
2021/06/11 06:44:58;;;;;;;11.77;10.60;;;;;;;;;;3587894;40;20043;-64
2021/06/11 06:47:23;;;;;;;12.02;10.82;;;;;;;;;;3586705;40;20029;-63
2021/06/11 06:49:49;;;;;;;13.15;11.75;;;;;;;;;;3585674;40;20028;-62
2021/06/11 06:52:15;;;;;;;12.90;11.60;;;;;;;;;;3589812;40;20040;-63
2021/06/11 06:54:43;;;;;;;13.35;11.70;;;;;;;;;;3587136;40;20052;-63
2021/06/11 06:57:09;;;;;;;12.32;11.13;;;;;;;;;;3587414;40;20055;-63
2021/06/11 06:59:34;;;;;;;12.68;10.57;;;;;;;;;;3587762;40;20044;-63
2021/06/11 07:02:00;;;;;;;23.88;11.32;;;;;;;;;;3588431;40;20028;-63
2021/06/11 07:04:29;;;;;;;14.05;11.50;;;;;;;;;;3586629;40;20402;-64
2021/06/11 07:06:54;;;;;;;15.15;11.20;;;;;;;;;;3587200;40;20953;-64
2021/06/11 07:09:20;;;;;;;14.02;10.63;;;;;;;;;;3587839;40;20033;-64
2021/06/11 07:11:48;;;;;;;12.27;10.88;;;;;;;;;;3588888;40;20322;-64
2021/06/11 07:14:15;;;;;;;14.30;10.65;;;;;;;;;;3584977;40;20032;-64
2021/06/11 07:16:41;;;;;;;13.02;10.82;;;;;;;;;;3585439;40;20075;-63
2021/06/11 07:19:07;;;;;;;11.32;9.93;;;;;;;;;;3586049;40;20469;-63
2021/06/11 07:21:32;;;;;;;11.90;10.70;;;;;;;;;;3586499;40;20040;-63
2021/06/11 07:23:57;;;;;;;12.80;10.57;;;;;;;;;;3587013;40;20033;-63
2021/06/11 07:26:23;;;;;;;12.18;10.65;;;;;;;;;;3585518;40;20036;-62
2021/06/11 07:28:48;;;;;;;12.43;9.43;;;;;;;;;;3587436;40;20532;-63
2021/06/11 07:31:14;;;;;;;11.73;10.05;;;;;;;;;;3585494;40;20048;-65
2021/06/11 07:33:39;;;;;;;12.75;9.88;;;;;;;;;;3579403;40;20036;-65
2021/06/11 07:36:04;;;;;;;11.52;9.95;;;;;;;;;;3587455;40;20118;-65
2021/06/11 07:38:30;;;;;;;11.02;9.95;;;;;;;;;;3588788;40;20051;-66
2021/06/11 07:40:56;;;;;;;12.65;10.55;;;;;;;;;;3588005;40;20314;-66
2021/06/11 07:43:22;;;;;;;12.15;9.85;;;;;;;;;;3588733;40;20044;-66
2021/06/11 07:45:49;;;;;;;10.55;9.45;;;;;;;;;;3588272;40;20060;-65
2021/06/11 07:48:14;;;;;;;14.52;9.57;;;;;;;;;;3586330;40;20067;-65
2021/06/11 07:50:41;;;;;;;11.73;9.68;;;;;;;;;;3586582;40;20322;-66
2021/06/11 07:53:06;;;;;;;12.32;8.88;;;;;;;;;;3588544;40;20059;-65
2021/06/11 07:55:32;;;;;;;10.35;9.35;;;;;;;;;;3585979;40;20130;-66
2021/06/11 07:57:59;;;;;;;12.32;9.60;;;;;;;;;;3586828;40;20040;-65
2021/06/11 08:00:25;;;;;;;14.00;9.48;;;;;;;;;;3585450;40;20043;-66
2021/06/11 08:02:55;;;;;;;12.55;9.43;;;;;;;;;;3586877;40;20078;-65
2021/06/11 08:05:21;;;;;;;15.63;9.40;;;;;;;;;;3584724;40;20029;-65
2021/06/11 08:07:46;;;;;;;11.20;9.23;;;;;;;;;;3576530;40;20039;-65
2021/06/11 08:10:11;;;;;;;9.93;8.93;;;;;;;;;;3586941;40;20374;-66
2021/06/11 08:12:37;;;;;;;13.13;8.27;;;;;;;;;;3587028;40;20041;-66
2021/06/11 08:15:04;;;;;;;11.98;9.25;;;;;;;;;;3578923;40;20089;-66
2021/06/11 08:17:29;;;;;;;12.68;8.52;;;;;;;;;;3587472;40;20058;-66
2021/06/11 08:19:55;;;;;;;12.90;8.98;;;;;;;;;;3587932;40;20032;-65
2021/06/11 08:22:20;;;;;;;14.55;9.77;;;;;;;;;;3589432;40;20040;-66
2021/06/11 08:24:45;;;;;;;12.65;9.88;;;;;;;;;;3590067;40;20028;-66
2021/06/11 08:27:11;;;;;;;10.40;9.30;;;;;;;;;;3586079;40;20028;-66
2021/06/11 08:29:36;;;;;;;10.30;8.60;;;;;;;;;;3588306;40;20029;-66
2021/06/11 08:32:02;;;;;;;16.00;9.52;;;;;;;;;;3588167;40;20032;-66
2021/06/11 08:34:29;;;;;;;13.13;9.93;;;;;;;;;;3586299;40;20122;-66
2021/06/11 08:36:55;;;;;;;11.52;10.27;;;;;;;;;;3586585;40;20033;-65
2021/06/11 08:39:20;;;;;;;11.73;9.60;;;;;;;;;;3587401;40;20084;-65
2021/06/11 08:41:45;;;;;;;9.85;8.95;;;;;;;;;;3587155;40;20052;-66
2021/06/11 08:44:12;;;;;;;10.25;9.18;;;;;;;;;;3588109;40;20059;-66
2021/06/11 08:46:38;;;;;;;10.18;9.13;;;;;;;;;;3583240;40;20052;-66
2021/06/11 08:49:04;;;;;;;10.55;8.93;;;;;;;;;;3586261;40;20047;-66
2021/06/11 08:51:29;;;;;;;12.40;9.82;;;;;;;;;;3586764;40;20393;-66
2021/06/11 08:53:55;;;;;;;11.20;9.52;;;;;;;;;;3584248;40;20040;-66
2021/06/11 08:56:21;;;;;;;10.68;9.20;;;;;;;;;;3585624;40;20099;-66
2021/06/11 08:58:48;;;;;;;15.75;8.30;;;;;;;;;;3586439;40;20427;-65
2021/06/11 09:01:14;;;;;;;11.02;8.98;;;;;;;;;;3587787;40;20437;-65
2021/06/11 09:03:47;;;;;;;11.48;9.15;;;;;;;;;;3585534;40;20048;-66
2021/06/11 09:06:13;;;;;;;10.02;7.95;;;;;;;;;;3585539;40;20287;-67
2021/06/11 09:08:40;;;;;;;6.63;5.80;;;;;;;;;;3587575;40;20086;-66
2021/06/11 09:11:18;;;;;;;11.52;7.47;;;;;;;;;;3587105;39;20369;-65
2021/06/11 09:13:47;;;;;;;10.88;7.43;;;;;;;;;;3587067;40;20036;-66
2021/06/11 09:16:19;;;;;;;8.43;6.82;;;;;;;;;;3584617;40;20379;-65
2021/06/11 09:19:05;;;;;;;9.35;6.82;;;;;;;;;;3583690;40;20069;-66
2021/06/11 09:21:38;;;;;;;7.45;6.45;;;;;;;;;;3584824;40;20029;-67
2021/06/11 09:24:22;;;;;;;6.85;6.15;;;;;;;;;;3586375;40;20024;-67
2021/06/11 09:26:57;;;;;;;8.80;6.53;;;;;;;;;;3585899;40;20073;-67
2021/06/11 09:29:26;;;;;;;7.78;6.43;;;;;;;;;;3587114;40;20032;-65
2021/06/11 09:31:54;;;;;;;8.20;7.22;;;;;;;;;;3586308;40;20549;-65
2021/06/11 09:34:25;;;;;;;14.00;8.10;;;;;;;;;;3585790;40;20032;-66
2021/06/11 09:36:57;;;;;;;8.57;7.47;;;;;;;;;;3587988;40;20245;-66
2021/06/11 09:39:23;;;;;;;9.77;8.40;;;;;;;;;;3585920;40;20404;-67
2021/06/11 09:42:04;;;;;;;12.02;8.43;;;;;;;;;;3587155;40;20060;-66
2021/06/11 09:44:29;;;;;;;13.50;7.65;;;;;;;;;;3585532;40;20039;-67
2021/06/11 09:46:55;;;;;;;10.75;8.70;;;;;;;;;;3587709;40;20380;-67
2021/06/11 09:49:25;;;;;;;12.60;9.43;;;;;;;;;;3585955;40;20028;-67
2021/06/11 09:52:08;;;;;;;13.70;8.43;;;;;;;;;;3586139;40;20036;-66
2021/06/11 09:54:33;;;;;;;12.25;8.73;;;;;;;;;;3588109;40;20399;-66
2021/06/11 09:57:22;;;;;;;8.52;7.63;;;;;;;;;;3587735;40;20029;-66
2021/06/11 09:59:48;;;;;;;10.52;9.20;;;;;;;;;;3585646;40;20037;-67
2021/06/11 10:02:15;;;;;;;12.25;8.50;;;;;;;;;;3587380;40;20224;-66
2021/06/11 10:04:44;;;;;;;9.75;8.75;;;;;;;;;;3584783;40;20475;-66
2021/06/11 10:07:11;;;;;;;12.35;8.48;;;;;;;;;;3585305;40;20060;-66
2021/06/11 10:09:37;;;;;;;10.10;8.63;;;;;;;;;;3585134;40;20048;-67
2021/06/11 10:12:03;;;;;;;10.50;8.63;;;;;;;;;;3586669;40;20052;-66
2021/06/11 10:14:29;;;;;;;9.57;8.25;;;;;;;;;;3584457;40;20106;-67
2021/06/11 10:16:55;;;;;;;10.95;7.93;;;;;;;;;;3585056;40;20033;-67
2021/06/11 10:19:21;;;;;;;9.50;7.50;;;;;;;;;;3585539;40;20055;-65
2021/06/11 10:21:46;;;;;;;11.52;8.80;;;;;;;;;;3586024;40;20314;-65
2021/06/11 10:24:14;;;;;;;8.73;7.45;;;;;;;;;;3583718;40;20047;-66
2021/06/11 10:26:41;;;;;;;9.63;6.15;;;;;;;;;;3577202;40;20029;-67
2021/06/11 10:29:07;;;;;;;7.20;6.50;;;;;;;;;;3587525;40;20069;-66
2021/06/11 10:31:37;;;;;;;7.72;6.82;;;;;;;;;;3585765;40;20037;-67
2021/06/11 10:34:04;;;;;;;7.28;6.57;;;;;;;;;;3586325;40;20580;-67
2021/06/11 10:36:30;;;;;;;9.43;6.50;;;;;;;;;;3587687;40;20045;-66
2021/06/11 10:38:57;;;;;;;8.43;6.35;;;;;;;;;;3589184;40;20095;-66
2021/06/11 10:41:23;;;;;;;6.60;5.95;;;;;;;;;;3587886;40;20161;-67
2021/06/11 10:43:49;;;;;;;8.52;5.43;;;;;;;;;;3588618;40;20064;-67
2021/06/11 10:46:30;;;;;;;6.68;5.45;;;;;;;;;;3588480;40;20044;-68
2021/06/11 10:48:55;;;;;;;7.35;5.18;;;;;;;;;;3588485;40;20044;-67
2021/06/11 10:51:50;;;;;;;6.07;5.20;;;;;;;;;;3587053;40;20469;-67
2021/06/11 10:54:16;;;;;;;5.88;4.82;;;;;;;;;;3586751;40;20036;-67
2021/06/11 10:56:56;;;;;;;13.77;6.28;;;;;;;;;;3587547;40;20465;-67
2021/06/11 10:59:36;;;;;;;6.45;5.10;;;;;;;;;;3586760;40;20065;-67
2021/06/11 11:02:02;;;;;;;;;;;;;;;;;;3588981;40;20072;-67
2021/06/11 11:04:29;;;;;;;5.93;4.32;;;;;;;;;;3586561;40;20565;-67
2021/06/11 11:06:54;;;;;;;5.32;4.47;;;;;;;;;;3589308;40;20112;-67
2021/06/11 11:09:20;;;;;;;9.35;4.55;;;;;;;;;;3578515;40;20544;-67
2021/06/11 11:11:46;;;;;;;7.43;4.75;;;;;;;;;;3588811;40;20032;-67
2021/06/11 11:14:38;;;;;;;5.25;4.75;;;;;;;;;;3585036;40;20045;-67
2021/06/11 11:17:04;;;;;;;6.18;4.47;;;;;;;;;;3587614;40;20044;-67
2021/06/11 11:19:50;;;;;;;5.38;4.53;;;;;;;;;;3588458;40;20044;-67
2021/06/11 11:22:37;;;;;;;4.78;4.05;;;;;;;;;;3579612;40;20142;-67
2021/06/11 11:25:15;;;;;;;5.70;4.25;;;;;;;;;;3587778;40;20047;-67
2021/06/11 11:27:46;;;;;;;10.23;4.55;;;;;;;;;;3578527;40;20037;-67
2021/06/11 11:30:12;;;;;;;5.25;3.95;;;;;;;;;;3588599;40;20032;-67
2021/06/11 11:32:38;;;;;;;8.57;4.05;;;;;;;;;;3587041;40;20052;-67
2021/06/11 11:35:04;;;;;;;4.78;3.90;;;;;;;;;;3585918;40;20374;-68
2021/06/11 11:37:30;;;;;;;4.20;3.60;;;;;;;;;;3587592;39;20036;-68
2021/06/11 11:39:55;;;;;;;7.50;4.22;;;;;;;;;;3587730;40;20049;-68
2021/06/11 11:42:21;;;;;;;5.85;3.92;;;;;;;;;;3586900;40;20052;-67
2021/06/11 11:44:46;;;;;;;7.03;4.53;;;;;;;;;;3584854;40;20114;-67
2021/06/11 11:47:11;;;;;;;6.32;4.50;;;;;;;;;;3577458;40;20037;-67
2021/06/11 11:49:37;;;;;;;5.75;4.20;;;;;;;;;;3587363;40;20679;-66
2021/06/11 11:52:03;;;;;;;6.38;4.47;;;;;;;;;;3584815;40;20040;-67
2021/06/11 11:54:31;;;;;;;6.78;3.72;;;;;;;;;;3584358;40;20041;-68
2021/06/11 11:56:57;;;;;;;6.60;3.95;;;;;;;;;;3584793;40;20037;-68
2021/06/11 11:59:23;;;;;;;5.50;3.60;;;;;;;;;;3585376;40;20048;-68
2021/06/11 12:01:48;;;;;;;4.43;3.30;;;;;;;;;;3584967;40;20261;-67
2021/06/11 12:04:14;;;;;;;4.95;3.25;;;;;;;;;;3586781;40;20029;-67
2021/06/11 12:06:40;;;;;;;4.32;2.97;;;;;;;;;;3588614;40;20380;-67
2021/06/11 12:09:06;;;;;;;7.10;3.65;;;;;;;;;;3576837;40;20365;-67
2021/06/11 12:11:32;;;;;;;5.68;3.53;;;;;;;;;;3586302;40;20077;-68
2021/06/11 12:13:57;;;;;;;5.00;3.53;;;;;;;;;;3588920;40;20375;-67
2021/06/11 12:16:23;;;;;;;6.13;3.05;;;;;;;;;;3588166;40;20565;-67
2021/06/11 12:18:48;;;;;;;6.15;3.17;;;;;;;;;;3587087;40;20044;-68
2021/06/11 12:21:13;;;;;;;6.00;3.88;;;;;;;;;;3578743;40;20392;-68
2021/06/11 12:23:39;;;;;;;304.17;40.92;;;;;;;;;;3586673;40;20507;-69
2021/06/11 12:26:04;;;;;;;5.30;3.45;;;;;;;;;;3584490;40;20048;-67
2021/06/11 12:28:30;;;;;;;5.13;3.33;;;;;;;;;;3588229;40;20036;-69
2021/06/11 12:30:56;;;;;;;5.97;3.28;;;;;;;;;;3579790;40;20040;-67
2021/06/11 12:33:22;;;;;;;5.63;3.65;;;;;;;;;;3586709;40;20033;-68
2021/06/11 12:35:47;;;;;;;5.68;3.45;;;;;;;;;;3585400;40;20032;-68
2021/06/11 12:38:13;;;;;;;8.25;3.83;;;;;;;;;;3587247;40;20393;-67
2021/06/11 12:40:43;;;;;;;5.53;4.05;;;;;;;;;;3586572;40;20501;-68
2021/06/11 12:43:08;;;;;;;7.22;3.97;;;;;;;;;;3585826;40;20054;-66
2021/06/11 12:45:36;;;;;;;4.75;3.40;;;;;;;;;;3581724;40;20036;-67
2021/06/11 12:48:01;;;;;;;5.68;3.65;;;;;;;;;;3586670;39;20515;-67
2021/06/11 12:50:27;;;;;;;6.90;4.22;;;;;;;;;;3585585;40;20474;-64
2021/06/11 12:52:52;;;;;;;7.28;3.38;;;;;;;;;;3577708;40;20028;-64
2021/06/11 12:55:18;;;;;;;9.82;3.70;;;;;;;;;;3587718;39;20292;-64
2021/06/11 12:57:43;;;;;;;9.20;4.50;;;;;;;;;;3587698;40;20041;-65
2021/06/11 13:00:10;;;;;;;6.82;4.05;;;;;;;;;;3588260;40;20072;-65
2021/06/11 13:02:36;;;;;;;8.05;2.95;;;;;;;;;;3588510;40;20133;-65
2021/06/11 13:05:05;;;;;;;7.35;3.67;;;;;;;;;;3586220;40;20079;-66
2021/06/11 13:07:30;;;;;;;4.78;3.30;;;;;;;;;;3585099;40;20029;-66
2021/06/11 13:09:56;;;;;;;4.03;3.08;;;;;;;;;;3586062;40;20044;-66
2021/06/11 13:12:22;;;;;;;7.65;3.40;;;;;;;;;;3585255;40;20380;-67
2021/06/11 13:14:48;;;;;;;6.28;3.10;;;;;;;;;;3585236;40;20121;-68
2021/06/11 13:17:13;;;;;;;7.53;3.00;;;;;;;;;;3579727;40;20044;-68
2021/06/11 13:19:39;;;;;;;5.68;3.38;;;;;;;;;;3586358;40;20044;-68
2021/06/11 13:22:05;;;;;;;4.53;3.22;;;;;;;;;;3585048;40;20037;-69
2021/06/11 13:24:31;;;;;;;7.82;3.20;;;;;;;;;;3585130;40;20371;-68
2021/06/11 13:26:56;;;;;;;3.85;2.42;;;;;;;;;;3584175;40;20032;-69
2021/06/11 13:29:23;;;;;;;10.93;3.05;;;;;;;;;;3576161;40;20040;-68
2021/06/11 13:31:49;;;;;;;3.55;2.65;;;;;;;;;;3583294;40;20174;-67
2021/06/11 13:34:15;;;;;;;6.13;2.72;;;;;;;;;;3582040;40;20029;-67
2021/06/11 13:36:40;;;;;;;4.20;2.60;;;;;;;;;;3586532;40;20037;-68
2021/06/11 13:39:06;;;;;;;7.07;2.63;;;;;;;;;;3586249;39;20059;-68
2021/06/11 13:41:32;;;;;;;4.03;2.58;;;;;;;;;;3585369;40;20051;-68
2021/06/11 13:43:57;;;;;;;4.25;2.67;;;;;;;;;;3583472;40;20052;-68
2021/06/11 13:46:23;;;;;;;3.55;2.40;;;;;;;;;;3579250;40;20059;-68
2021/06/11 13:48:49;;;;;;;7.53;2.88;;;;;;;;;;3586268;40;20044;-68
2021/06/11 13:51:16;;;;;;;8.52;2.55;;;;;;;;;;3585332;40;20052;-67
2021/06/11 13:53:41;;;;;;;3.55;2.38;;;;;;;;;;3583902;40;20072;-68
2021/06/11 13:56:07;;;;;;;4.88;2.75;;;;;;;;;;3583228;40;20048;-66
2021/06/11 13:58:32;;;;;;;4.10;2.85;;;;;;;;;;3587233;39;20056;-67
2021/06/11 14:00:58;;;;;;;5.50;2.83;;;;;;;;;;3586821;40;20063;-67
2021/06/11 14:03:24;;;;;;;6.90;2.72;;;;;;;;;;3585146;40;20053;-66
2021/06/11 14:05:49;;;;;;;4.18;2.75;;;;;;;;;;3586329;40;20076;-66
2021/06/11 14:08:15;;;;;;;3.20;2.30;;;;;;;;;;3588099;40;20040;-67
2021/06/11 14:10:40;;;;;;;3.35;2.40;;;;;;;;;;3579247;40;20040;-67
2021/06/11 14:13:06;;;;;;;3.38;2.10;;;;;;;;;;3586661;40;20036;-66
2021/06/11 14:15:32;;;;;;;3.15;1.83;;;;;;;;;;3587233;40;20435;-66
2021/06/11 14:17:58;;;;;;;3.67;2.08;;;;;;;;;;3587726;40;20039;-66
2021/06/11 14:20:24;;;;;;;3.50;2.15;;;;;;;;;;3588600;40;20057;-66
2021/06/11 14:22:49;;;;;;;5.05;1.83;;;;;;;;;;3587681;40;20036;-67
2021/06/11 14:25:18;;;;;;;3.83;2.40;;;;;;;;;;3587015;40;20285;-67
2021/06/11 14:27:45;;;;;;;4.30;2.35;;;;;;;;;;3588154;40;20352;-67
2021/06/11 14:30:12;;;;;;;4.72;2.38;;;;;;;;;;3587532;40;20040;-67
2021/06/11 14:32:37;;;;;;;3.55;2.30;;;;;;;;;;3588463;40;20137;-66